createdAt,value
2023-03-10T00:00:12.058Z,97111.59
2023-03-10T00:01:18.071Z,97118.07
2023-03-10T00:02:11.066Z,97123.02
2023-03-10T00:03:11.060Z,97117.29
2023-03-10T00:04:11.108Z,97113.44
2023-03-10T00:05:12.062Z,97122.85
2023-03-10T00:06:11.230Z,97115.32
2023-03-10T00:07:11.076Z,97113.43
2023-03-10T00:08:11.072Z,97114.75
2023-03-10T00:09:11.060Z,97113.82
2023-03-10T00:10:11.068Z,97120.40
2023-03-10T00:11:11.068Z,97119.00
2023-03-10T00:12:11.062Z,97118.35
2023-03-10T00:13:11.066Z,97119.86
2023-03-10T00:14:11.074Z,97120.66
2023-03-10T00:15:11.067Z,97125.99
2023-03-10T00:16:17.180Z,97124.89
2023-03-10T00:17:11.063Z,97122.50
2023-03-10T00:18:11.060Z,97126.38
2023-03-10T00:19:11.062Z,97125.90
2023-03-10T00:20:15.064Z,97127.10
2023-03-10T00:21:13.063Z,97120.70
2023-03-10T00:22:11.060Z,97125.94
2023-03-10T00:23:11.062Z,97123.11
2023-03-10T00:24:11.061Z,97120.61
2023-03-10T00:25:11.060Z,97121.77
2023-03-10T00:26:12.062Z,97117.35
2023-03-10T00:27:11.061Z,97114.48
2023-03-10T00:28:11.065Z,97114.96
2023-03-10T00:29:12.063Z,97118.24
2023-03-10T00:30:11.078Z,97112.94
2023-03-10T00:31:12.157Z,97118.52
2023-03-10T00:32:11.120Z,97119.07
2023-03-10T00:33:11.074Z,97113.68
2023-03-10T00:34:11.077Z,97119.99
2023-03-10T00:35:11.064Z,97123.94
2023-03-10T00:36:13.161Z,97125.54
2023-03-10T00:37:11.068Z,97126.18
2023-03-10T00:38:11.065Z,97117.49
2023-03-10T00:39:11.933Z,97128.71
2023-03-10T00:40:11.068Z,97129.97
2023-03-10T00:41:12.069Z,97120.50
2023-03-10T00:42:11.069Z,97123.11
2023-03-10T00:43:11.069Z,97128.68
2023-03-10T00:44:11.079Z,97130.86
2023-03-10T00:45:11.071Z,97126.74
2023-03-10T00:46:11.203Z,97126.71
2023-03-10T00:47:11.064Z,97124.06
2023-03-10T00:48:11.076Z,97134.07
2023-03-10T00:49:14.067Z,97136.71
2023-03-10T00:50:11.072Z,97120.14
2023-03-10T00:51:11.075Z,97140.75
2023-03-10T00:52:11.071Z,97134.83
2023-03-10T00:53:11.071Z,97129.53
2023-03-10T00:54:11.078Z,97138.30
2023-03-10T00:55:11.078Z,97139.02
2023-03-10T00:56:14.099Z,97136.09
2023-03-10T00:57:11.082Z,97131.95
2023-03-10T00:58:11.069Z,97133.35
2023-03-10T00:59:12.072Z,97126.14
2023-03-10T01:00:11.078Z,97138.92
2023-03-10T01:01:14.112Z,97123.38
2023-03-10T01:02:11.064Z,97134.57
2023-03-10T01:03:11.067Z,97128.52
2023-03-10T01:04:13.106Z,97141.00
2023-03-10T01:05:11.063Z,97125.00
2023-03-10T01:06:11.070Z,97142.40
2023-03-10T01:07:11.064Z,97135.94
2023-03-10T01:08:11.064Z,97141.32
2023-03-10T01:09:11.069Z,97137.07
2023-03-10T01:10:11.063Z,97139.87
2023-03-10T01:11:12.062Z,97147.26
2023-03-10T01:12:11.075Z,97142.42
2023-03-10T01:13:13.066Z,97138.28
2023-03-10T01:14:11.069Z,97147.64
2023-03-10T01:15:11.067Z,97144.20
2023-03-10T01:16:11.108Z,97142.34
2023-03-10T01:17:11.076Z,97149.91
2023-03-10T01:18:11.071Z,97156.06
2023-03-10T01:19:11.066Z,97147.13
2023-03-10T01:20:13.074Z,97162.02
2023-03-10T01:21:16.071Z,97164.45
2023-03-10T01:22:11.063Z,97170.09
2023-03-10T01:23:17.087Z,97167.30
2023-03-10T01:24:15.072Z,97170.45
2023-03-10T01:25:14.063Z,97172.84
2023-03-10T01:26:11.061Z,97176.12
2023-03-10T01:27:11.068Z,97178.83
2023-03-10T01:28:11.066Z,97186.12
2023-03-10T01:29:11.061Z,97183.78
2023-03-10T01:30:11.075Z,97181.20
2023-03-10T01:31:11.113Z,97189.24
2023-03-10T01:32:11.126Z,97187.52
2023-03-10T01:33:11.074Z,97192.39
2023-03-10T01:34:11.063Z,97187.06
2023-03-10T01:35:11.078Z,97186.77
2023-03-10T01:36:11.103Z,97184.86
2023-03-10T01:37:11.064Z,97190.13
2023-03-10T01:38:11.074Z,97188.73
2023-03-10T01:39:11.064Z,97187.73
2023-03-10T01:40:14.086Z,97189.89
2023-03-10T01:41:11.065Z,97175.66
2023-03-10T01:42:11.075Z,97192.04
2023-03-10T01:43:15.071Z,97187.01
2023-03-10T01:44:18.061Z,97190.29
2023-03-10T01:45:19.074Z,97190.13
2023-03-10T01:46:19.177Z,97188.51
2023-03-10T01:47:11.057Z,97194.11
2023-03-10T01:48:11.065Z,97197.25
2023-03-10T01:49:17.062Z,97191.82
2023-03-10T01:50:16.061Z,97194.03
2023-03-10T01:51:11.065Z,97194.13
2023-03-10T01:52:17.060Z,97201.91
2023-03-10T01:53:11.086Z,97200.19
2023-03-10T01:54:14.060Z,97200.19
2023-03-10T01:55:18.068Z,97196.71
2023-03-10T01:56:11.062Z,97206.10
2023-03-10T01:57:11.057Z,97204.60
2023-03-10T01:58:11.068Z,97207.61
2023-03-10T01:59:11.069Z,97208.12
2023-03-10T02:00:15.105Z,97200.66
2023-03-10T02:01:11.123Z,97207.01
2023-03-10T02:02:11.132Z,97194.30
2023-03-10T02:03:18.061Z,97202.69
2023-03-10T02:04:16.062Z,97204.94
2023-03-10T02:05:11.062Z,97209.16
2023-03-10T02:06:13.081Z,97201.74
2023-03-10T02:07:11.059Z,97205.18
2023-03-10T02:08:11.061Z,97205.13
2023-03-10T02:09:11.054Z,97198.43
2023-03-10T02:10:11.063Z,97208.27
2023-03-10T02:11:11.064Z,97211.85
2023-03-10T02:12:11.058Z,97206.58
2023-03-10T02:13:11.071Z,97195.29
2023-03-10T02:14:11.078Z,97205.02
2023-03-10T02:15:11.065Z,97206.14
2023-03-10T02:16:11.117Z,97210.02
2023-03-10T02:17:11.066Z,97204.02
2023-03-10T02:18:12.067Z,97213.13
2023-03-10T02:19:17.078Z,97210.37
2023-03-10T02:20:17.062Z,97207.30
2023-03-10T02:21:19.061Z,97216.03
2023-03-10T02:22:11.064Z,97216.17
2023-03-10T02:23:14.064Z,97218.84
2023-03-10T02:24:19.073Z,97218.80
2023-03-10T02:25:19.066Z,97229.13
2023-03-10T02:26:19.073Z,97223.67
2023-03-10T02:27:21.074Z,97218.77
2023-03-10T02:28:11.066Z,97226.36
2023-03-10T02:29:13.067Z,97234.50
2023-03-10T02:30:15.079Z,97228.91
2023-03-10T02:31:11.096Z,97239.61
2023-03-10T02:32:11.168Z,97222.46
2023-03-10T02:33:16.073Z,97238.86
2023-03-10T02:34:11.067Z,97222.62
2023-03-10T02:35:11.067Z,97233.05
2023-03-10T02:36:16.125Z,97244.02
2023-03-10T02:37:19.067Z,97240.20
2023-03-10T02:38:11.064Z,97241.05
2023-03-10T02:39:11.065Z,97239.55
2023-03-10T02:40:19.069Z,97239.28
2023-03-10T02:41:21.069Z,97245.52
2023-03-10T02:42:11.064Z,97250.70
2023-03-10T02:43:18.092Z,97246.07
2023-03-10T02:44:13.067Z,97248.12
2023-03-10T02:45:11.066Z,97248.28
2023-03-10T02:46:11.142Z,97250.14
2023-03-10T02:47:11.069Z,97255.48
2023-03-10T02:48:12.073Z,97258.99
2023-03-10T02:49:11.071Z,97249.89
2023-03-10T02:50:13.067Z,97255.84
2023-03-10T02:51:19.063Z,97251.49
2023-03-10T02:52:21.076Z,97250.90
2023-03-10T02:53:15.064Z,97261.89
2023-03-10T02:54:11.067Z,97257.19
2023-03-10T02:55:15.065Z,97261.16
2023-03-10T02:56:11.073Z,97256.07
2023-03-10T02:57:11.062Z,97251.83
2023-03-10T02:58:11.065Z,97253.76
2023-03-10T02:59:11.069Z,97252.40
2023-03-10T03:00:12.061Z,97249.57
2023-03-10T03:01:11.089Z,97249.71
2023-03-10T03:02:11.066Z,97257.39
2023-03-10T03:03:11.066Z,97259.23
2023-03-10T03:04:11.125Z,97257.62
2023-03-10T03:05:11.065Z,97264.30
2023-03-10T03:06:11.058Z,97271.15
2023-03-10T03:07:11.070Z,97273.12
2023-03-10T03:08:11.067Z,97268.66
2023-03-10T03:09:11.078Z,97265.88
2023-03-10T03:10:11.074Z,97283.17
2023-03-10T03:11:11.061Z,97284.04
2023-03-10T03:12:11.064Z,97280.40
2023-03-10T03:13:11.072Z,97289.59
2023-03-10T03:14:11.060Z,97289.21
2023-03-10T03:15:11.065Z,97289.44
2023-03-10T03:16:11.166Z,97298.04
2023-03-10T03:17:11.063Z,97294.92
2023-03-10T03:18:11.069Z,97301.06
2023-03-10T03:19:11.099Z,97297.20
2023-03-10T03:20:15.060Z,97294.35
2023-03-10T03:21:11.062Z,97303.30
2023-03-10T03:22:11.070Z,97298.42
2023-03-10T03:23:11.068Z,97314.00
2023-03-10T03:24:11.064Z,97316.73
2023-03-10T03:25:11.073Z,97327.04
2023-03-10T03:26:19.063Z,97321.62
2023-03-10T03:27:11.067Z,97326.52
2023-03-10T03:28:11.065Z,97334.50
2023-03-10T03:29:11.065Z,97325.82
2023-03-10T03:30:13.086Z,97332.32
2023-03-10T03:31:14.065Z,97337.26
2023-03-10T03:32:11.330Z,97327.71
2023-03-10T03:33:11.062Z,97326.10
2023-03-10T03:34:11.065Z,97335.00
2023-03-10T03:35:13.060Z,97340.33
2023-03-10T03:36:11.105Z,97342.91
2023-03-10T03:37:11.075Z,97346.01
2023-03-10T03:38:11.060Z,97348.00
2023-03-10T03:39:11.155Z,97354.71
2023-03-10T03:40:15.076Z,97348.75
2023-03-10T03:41:11.060Z,97342.46
2023-03-10T03:42:11.063Z,97351.86
2023-03-10T03:43:11.068Z,97340.90
2023-03-10T03:44:11.062Z,97348.22
2023-03-10T03:45:11.064Z,97351.11
2023-03-10T03:46:11.134Z,97344.89
2023-03-10T03:47:12.062Z,97351.22
2023-03-10T03:48:12.063Z,97354.81
2023-03-10T03:49:11.069Z,97360.83
2023-03-10T03:50:11.067Z,97360.88
2023-03-10T03:51:11.064Z,97370.34
2023-03-10T03:52:11.065Z,97375.12
2023-03-10T03:53:11.062Z,97374.05
2023-03-10T03:54:11.060Z,97384.29
2023-03-10T03:55:11.065Z,97393.15
2023-03-10T03:56:11.062Z,97403.04
2023-03-10T03:57:11.067Z,97399.92
2023-03-10T03:58:11.066Z,97415.45
2023-03-10T03:59:11.064Z,97414.55
2023-03-10T04:00:14.067Z,97410.40
2023-03-10T04:01:11.066Z,97423.67
2023-03-10T04:02:11.092Z,97420.77
2023-03-10T04:03:11.103Z,97415.08
2023-03-10T04:04:11.062Z,97419.15
2023-03-10T04:05:11.063Z,97416.38
2023-03-10T04:06:12.063Z,97416.25
2023-03-10T04:07:11.058Z,97414.76
2023-03-10T04:08:11.070Z,97421.10
2023-03-10T04:09:11.089Z,97427.16
2023-03-10T04:10:12.066Z,97419.59
2023-03-10T04:11:11.066Z,97422.86
2023-03-10T04:12:11.066Z,97422.05
2023-03-10T04:13:11.057Z,97428.87
2023-03-10T04:14:11.085Z,97430.44
2023-03-10T04:15:11.066Z,97423.83
2023-03-10T04:16:11.081Z,97431.79
2023-03-10T04:17:12.290Z,97420.23
2023-03-10T04:18:11.074Z,97423.57
2023-03-10T04:19:11.057Z,97422.59
2023-03-10T04:20:11.069Z,97429.10
2023-03-10T04:21:11.071Z,97431.63
2023-03-10T04:22:11.057Z,97435.71
2023-03-10T04:23:11.058Z,97438.83
2023-03-10T04:24:11.066Z,97440.91
2023-03-10T04:25:11.062Z,97448.38
2023-03-10T04:26:11.073Z,97436.94
2023-03-10T04:27:13.060Z,97441.35
2023-03-10T04:28:11.058Z,97444.08
2023-03-10T04:29:11.061Z,97453.43
2023-03-10T04:30:12.067Z,97450.53
2023-03-10T04:31:17.128Z,97453.11
2023-03-10T04:32:11.100Z,97465.99
2023-03-10T04:33:11.069Z,97455.69
2023-03-10T04:34:11.060Z,97474.86
2023-03-10T04:35:11.061Z,97474.33
2023-03-10T04:36:11.133Z,97476.54
2023-03-10T04:37:11.061Z,97479.75
2023-03-10T04:38:11.062Z,97483.25
2023-03-10T04:39:11.064Z,97476.48
2023-03-10T04:40:13.060Z,97490.54
2023-03-10T04:41:11.064Z,97492.74
2023-03-10T04:42:11.064Z,97494.32
2023-03-10T04:43:11.061Z,97508.33
2023-03-10T04:44:24.390Z,97510.16
2023-03-10T04:45:13.064Z,97511.94
2023-03-10T04:46:11.128Z,97512.46
2023-03-10T04:47:11.068Z,97521.49
2023-03-10T04:48:11.065Z,97540.99
2023-03-10T04:49:11.061Z,97542.93
2023-03-10T04:50:11.062Z,97553.14
2023-03-10T04:51:11.064Z,97559.32
2023-03-10T04:52:11.068Z,97575.98
2023-03-10T04:53:11.063Z,97576.62
2023-03-10T04:54:11.064Z,97576.62
2023-03-10T04:55:11.068Z,97574.90
2023-03-10T04:56:11.066Z,97567.87
2023-03-10T04:57:11.068Z,97558.26
2023-03-10T04:58:11.064Z,97555.51
2023-03-10T04:59:11.082Z,97551.70
2023-03-10T05:00:11.084Z,97552.66
2023-03-10T05:01:13.143Z,97536.81
2023-03-10T05:02:11.064Z,97534.55
2023-03-10T05:03:11.063Z,97534.17
2023-03-10T05:04:11.104Z,97533.25
2023-03-10T05:05:11.065Z,97546.27
2023-03-10T05:06:20.075Z,97554.21
2023-03-10T05:07:11.065Z,97555.36
2023-03-10T05:08:11.067Z,97561.95
2023-03-10T05:09:11.064Z,97569.16
2023-03-10T05:10:11.071Z,97579.10
2023-03-10T05:11:11.064Z,97577.75
2023-03-10T05:12:11.067Z,97583.62
2023-03-10T05:13:11.063Z,97597.91
2023-03-10T05:14:11.070Z,97583.93
2023-03-10T05:15:11.057Z,97582.43
2023-03-10T05:16:15.079Z,97600.11
2023-03-10T05:17:11.066Z,97605.68
2023-03-10T05:18:11.063Z,97611.44
2023-03-10T05:19:11.061Z,97624.66
2023-03-10T05:20:12.072Z,97632.83
2023-03-10T05:21:11.061Z,97640.24
2023-03-10T05:22:11.059Z,97642.66
2023-03-10T05:23:11.066Z,97652.11
2023-03-10T05:24:11.061Z,97656.33
2023-03-10T05:25:11.064Z,97665.28
2023-03-10T05:26:11.068Z,97671.79
2023-03-10T05:27:12.059Z,97675.27
2023-03-10T05:28:11.061Z,97684.04
2023-03-10T05:29:11.081Z,97694.13
2023-03-10T05:30:11.056Z,97683.99
2023-03-10T05:31:15.114Z,97703.93
2023-03-10T05:32:11.154Z,97719.09
2023-03-10T05:33:11.057Z,97719.66
2023-03-10T05:34:11.058Z,97724.87
2023-03-10T05:35:11.066Z,97722.88
2023-03-10T05:36:11.112Z,97738.04
2023-03-10T05:37:11.062Z,97748.80
2023-03-10T05:38:11.061Z,97752.74
2023-03-10T05:39:11.057Z,97753.22
2023-03-10T05:40:12.064Z,97748.86
2023-03-10T05:41:11.065Z,97760.64
2023-03-10T05:42:11.059Z,97759.12
2023-03-10T05:43:11.076Z,97752.03
2023-03-10T05:44:11.063Z,97751.98
2023-03-10T05:45:11.059Z,97746.27
2023-03-10T05:46:11.103Z,97762.37
2023-03-10T05:47:11.061Z,97765.98
2023-03-10T05:48:11.060Z,97759.10
2023-03-10T05:49:11.072Z,97755.68
2023-03-10T05:50:11.096Z,97766.67
2023-03-10T05:51:11.077Z,97777.30
2023-03-10T05:52:11.071Z,97783.00
2023-03-10T05:53:11.060Z,97785.70
2023-03-10T05:54:11.065Z,97801.48
2023-03-10T05:55:12.083Z,97810.88
2023-03-10T05:56:14.058Z,97819.03
2023-03-10T05:57:13.572Z,97821.51
2023-03-10T05:58:11.070Z,97839.51
2023-03-10T05:59:11.061Z,97835.14
2023-03-10T06:00:11.074Z,97858.69
2023-03-10T06:01:11.074Z,97864.34
2023-03-10T06:02:11.059Z,97870.16
2023-03-10T06:03:11.083Z,97889.47
2023-03-10T06:04:11.084Z,97897.09
2023-03-10T06:05:11.441Z,97893.55
2023-03-10T06:06:11.066Z,97907.30
2023-03-10T06:07:11.073Z,97911.63
2023-03-10T06:08:11.059Z,97917.48
2023-03-10T06:09:11.062Z,97919.75
2023-03-10T06:10:11.069Z,97925.71
2023-03-10T06:11:11.059Z,97930.89
2023-03-10T06:12:11.062Z,97928.20
2023-03-10T06:13:11.072Z,97949.31
2023-03-10T06:14:11.084Z,97958.89
2023-03-10T06:15:11.063Z,97948.20
2023-03-10T06:16:11.094Z,97953.82
2023-03-10T06:17:11.065Z,97968.35
2023-03-10T06:18:11.060Z,97976.50
2023-03-10T06:19:11.068Z,97965.14
2023-03-10T06:20:11.068Z,97959.60
2023-03-10T06:21:12.069Z,97957.47
2023-03-10T06:22:11.071Z,97973.29
2023-03-10T06:23:11.066Z,97985.03
2023-03-10T06:24:11.074Z,97983.60
2023-03-10T06:25:11.081Z,97976.40
2023-03-10T06:26:13.059Z,97972.46
2023-03-10T06:27:11.064Z,97982.98
2023-03-10T06:28:11.064Z,97987.09
2023-03-10T06:29:11.074Z,97978.44
2023-03-10T06:30:11.062Z,97985.76
2023-03-10T06:31:14.263Z,97995.70
2023-03-10T06:32:11.264Z,98013.47
2023-03-10T06:33:11.068Z,98031.29
2023-03-10T06:34:11.067Z,98041.71
2023-03-10T06:35:12.074Z,98039.50
2023-03-10T06:36:11.107Z,98034.84
2023-03-10T06:37:11.066Z,98040.01
2023-03-10T06:38:11.070Z,98044.54
2023-03-10T06:39:11.074Z,98053.31
2023-03-10T06:40:11.066Z,98058.43
2023-03-10T06:41:11.074Z,98059.86
2023-03-10T06:42:11.075Z,98055.72
2023-03-10T06:43:11.067Z,98059.10
2023-03-10T06:44:11.069Z,98067.03
2023-03-10T06:45:13.069Z,98042.27
2023-03-10T06:46:11.118Z,98037.09
2023-03-10T06:47:11.073Z,98059.25
2023-03-10T06:48:11.072Z,98070.57
2023-03-10T06:49:11.070Z,98079.54
2023-03-10T06:50:13.079Z,98089.88
2023-03-10T06:51:15.072Z,98089.17
2023-03-10T06:52:11.069Z,98088.73
2023-03-10T06:53:11.073Z,98094.41
2023-03-10T06:54:11.071Z,98102.57
2023-03-10T06:55:11.100Z,98113.55
2023-03-10T06:56:18.072Z,98110.92
2023-03-10T06:57:11.079Z,98108.33
2023-03-10T06:58:11.075Z,98104.75
2023-03-10T06:59:11.069Z,98113.56
2023-03-10T07:00:15.066Z,98123.42
2023-03-10T07:01:15.132Z,98134.77
2023-03-10T07:02:12.081Z,98110.34
2023-03-10T07:03:11.069Z,98111.94
2023-03-10T07:04:11.058Z,98114.22
2023-03-10T07:05:12.064Z,98109.27
2023-03-10T07:06:11.069Z,98119.73
2023-03-10T07:07:11.058Z,98135.24
2023-03-10T07:08:11.060Z,98133.77
2023-03-10T07:09:11.068Z,98133.94
2023-03-10T07:10:11.062Z,98142.25
2023-03-10T07:11:11.067Z,98144.04
2023-03-10T07:12:11.074Z,98145.24
2023-03-10T07:13:11.062Z,98144.12
2023-03-10T07:14:11.061Z,98142.86
2023-03-10T07:15:11.061Z,98157.62
2023-03-10T07:16:11.059Z,98164.07
2023-03-10T07:17:11.101Z,98161.61
2023-03-10T07:18:11.087Z,98177.29
2023-03-10T07:19:11.068Z,98167.07
2023-03-10T07:20:11.063Z,98177.60
2023-03-10T07:21:15.062Z,98182.57
2023-03-10T07:22:11.459Z,98181.18
2023-03-10T07:23:11.060Z,98185.15
2023-03-10T07:24:11.060Z,98181.84
2023-03-10T07:25:11.058Z,98175.42
2023-03-10T07:26:13.067Z,98195.84
2023-03-10T07:27:11.061Z,98206.56
2023-03-10T07:28:11.058Z,98203.05
2023-03-10T07:29:11.061Z,98205.43
2023-03-10T07:30:11.060Z,98216.15
2023-03-10T07:31:11.160Z,98226.97
2023-03-10T07:32:11.107Z,98226.58
2023-03-10T07:33:11.061Z,98222.02
2023-03-10T07:34:11.060Z,98234.14
2023-03-10T07:35:11.066Z,98245.17
2023-03-10T07:36:14.181Z,98251.93
2023-03-10T07:37:11.063Z,98243.06
2023-03-10T07:38:11.066Z,98242.24
2023-03-10T07:39:11.056Z,98252.85
2023-03-10T07:40:11.060Z,98269.84
2023-03-10T07:41:18.067Z,98260.51
2023-03-10T07:42:11.062Z,98255.73
2023-03-10T07:43:11.062Z,98269.41
2023-03-10T07:44:11.068Z,98286.78
2023-03-10T07:45:11.057Z,98285.57
2023-03-10T07:46:11.161Z,98279.85
2023-03-10T07:47:11.062Z,98302.62
2023-03-10T07:48:11.057Z,98315.91
2023-03-10T07:49:11.060Z,98306.25
2023-03-10T07:50:11.070Z,98312.52
2023-03-10T07:51:11.063Z,98322.80
2023-03-10T07:52:11.060Z,98335.21
2023-03-10T07:53:11.062Z,98325.12
2023-03-10T07:54:11.057Z,98334.64
2023-03-10T07:55:11.079Z,98348.71
2023-03-10T07:56:11.078Z,98353.98
2023-03-10T07:57:11.066Z,98359.91
2023-03-10T07:58:11.075Z,98370.36
2023-03-10T07:59:11.073Z,98376.77
2023-03-10T08:00:11.059Z,98369.58
2023-03-10T08:01:14.064Z,98378.93
2023-03-10T08:02:13.078Z,98393.55
2023-03-10T08:03:11.062Z,98396.11
2023-03-10T08:04:11.234Z,98401.50
2023-03-10T08:05:11.119Z,98419.68
2023-03-10T08:06:15.064Z,98420.50
2023-03-10T08:07:11.069Z,98427.66
2023-03-10T08:08:11.060Z,98437.73
2023-03-10T08:09:11.068Z,98441.52
2023-03-10T08:10:11.063Z,98449.26
2023-03-10T08:11:11.058Z,98447.70
2023-03-10T08:12:11.060Z,98452.21
2023-03-10T08:13:11.071Z,98455.64
2023-03-10T08:14:11.066Z,98456.18
2023-03-10T08:15:11.085Z,98464.03
2023-03-10T08:16:11.157Z,98466.59
2023-03-10T08:17:11.064Z,98465.51
2023-03-10T08:18:11.068Z,98465.41
2023-03-10T08:19:11.061Z,98476.05
2023-03-10T08:20:11.059Z,98470.73
2023-03-10T08:21:11.064Z,98473.58
2023-03-10T08:22:11.061Z,98483.60
2023-03-10T08:23:11.059Z,98492.41
2023-03-10T08:24:11.066Z,98489.77
2023-03-10T08:25:11.062Z,98499.69
2023-03-10T08:26:13.069Z,98502.07
2023-03-10T08:27:11.068Z,98507.55
2023-03-10T08:28:11.064Z,98512.80
2023-03-10T08:29:11.062Z,98520.57
2023-03-10T08:30:11.072Z,98523.25
2023-03-10T08:31:14.138Z,98520.44
2023-03-10T08:32:11.089Z,98514.27
2023-03-10T08:33:12.071Z,98522.06
2023-03-10T08:34:11.058Z,98526.62
2023-03-10T08:35:11.064Z,98528.02
2023-03-10T08:36:14.193Z,98538.29
2023-03-10T08:37:11.057Z,98537.71
2023-03-10T08:38:11.063Z,98543.75
2023-03-10T08:39:11.070Z,98548.59
2023-03-10T08:40:11.059Z,98554.02
2023-03-10T08:41:18.069Z,98554.52
2023-03-10T08:42:12.067Z,98563.09
2023-03-10T08:43:11.059Z,98565.04
2023-03-10T08:44:11.061Z,98577.44
2023-03-10T08:45:11.066Z,98578.96
2023-03-10T08:46:11.126Z,98581.46
2023-03-10T08:47:11.138Z,98584.18
2023-03-10T08:48:11.070Z,98592.71
2023-03-10T08:49:11.062Z,98594.30
2023-03-10T08:50:11.064Z,98593.48
2023-03-10T08:51:12.126Z,98598.32
2023-03-10T08:52:11.065Z,98601.07
2023-03-10T08:53:11.066Z,98604.92
2023-03-10T08:54:11.064Z,98600.96
2023-03-10T08:55:11.059Z,98606.08
2023-03-10T08:56:11.066Z,98607.83
2023-03-10T08:57:11.065Z,98605.50
2023-03-10T08:58:11.059Z,98602.00
2023-03-10T08:59:11.073Z,98603.29
2023-03-10T09:00:11.064Z,98610.34
2023-03-10T09:01:11.076Z,98607.68
2023-03-10T09:02:12.168Z,98613.64
2023-03-10T09:03:12.034Z,98619.08
2023-03-10T09:04:11.074Z,98617.11
2023-03-10T09:05:11.077Z,98628.12
2023-03-10T09:06:11.066Z,98631.10
2023-03-10T09:07:11.060Z,98627.31
2023-03-10T09:08:11.070Z,98631.24
2023-03-10T09:09:11.063Z,98632.85
2023-03-10T09:10:11.064Z,98645.01
2023-03-10T09:11:14.076Z,98644.15
2023-03-10T09:12:12.068Z,98650.69
2023-03-10T09:13:14.138Z,98664.86
2023-03-10T09:14:11.080Z,98661.38
2023-03-10T09:15:11.068Z,98668.52
2023-03-10T09:16:11.608Z,98673.30
2023-03-10T09:17:12.090Z,98683.27
2023-03-10T09:18:11.077Z,98687.51
2023-03-10T09:19:11.065Z,98685.09
2023-03-10T09:20:11.075Z,98698.00
2023-03-10T09:21:11.071Z,98703.11
2023-03-10T09:22:11.061Z,98708.88
2023-03-10T09:23:11.091Z,98708.56
2023-03-10T09:24:11.064Z,98714.75
2023-03-10T09:25:11.059Z,98715.77
2023-03-10T09:26:11.077Z,98723.42
2023-03-10T09:27:11.062Z,98721.05
2023-03-10T09:28:11.061Z,98728.54
2023-03-10T09:29:11.066Z,98730.74
2023-03-10T09:30:11.060Z,98741.19
2023-03-10T09:31:15.148Z,98736.49
2023-03-10T09:32:11.164Z,98739.90
2023-03-10T09:33:16.061Z,98738.36
2023-03-10T09:34:11.066Z,98739.95
2023-03-10T09:35:11.074Z,98742.27
2023-03-10T09:36:11.110Z,98741.00
2023-03-10T09:37:11.068Z,98739.74
2023-03-10T09:38:11.076Z,98743.00
2023-03-10T09:39:11.080Z,98749.76
2023-03-10T09:40:15.070Z,98743.06
2023-03-10T09:41:19.065Z,98750.93
2023-03-10T09:42:25.988Z,98753.80
2023-03-10T09:43:17.087Z,98757.07
2023-03-10T09:44:21.077Z,98755.68
2023-03-10T09:45:21.071Z,98756.21
2023-03-10T09:46:19.124Z,98757.07
2023-03-10T09:47:20.114Z,98759.18
2023-03-10T09:48:19.068Z,98760.80
2023-03-10T09:49:18.065Z,98776.78
2023-03-10T09:50:19.087Z,98775.01
2023-03-10T09:51:16.069Z,98780.41
2023-03-10T09:52:19.063Z,98783.82
2023-03-10T09:53:19.076Z,98786.66
2023-03-10T09:54:21.076Z,98787.79
2023-03-10T09:55:21.067Z,98797.73
2023-03-10T09:56:15.078Z,98797.83
2023-03-10T09:57:20.069Z,98810.03
2023-03-10T09:58:19.081Z,98818.26
2023-03-10T09:59:16.082Z,98825.19
2023-03-10T10:00:16.059Z,98829.72
2023-03-10T10:01:19.076Z,98820.91
2023-03-10T10:02:17.067Z,98822.40
2023-03-10T10:03:19.154Z,98832.84
2023-03-10T10:04:18.278Z,98830.66
2023-03-10T10:05:19.142Z,98838.29
2023-03-10T10:06:15.063Z,98839.18
2023-03-10T10:07:15.082Z,98847.84
2023-03-10T10:08:19.060Z,98846.24
2023-03-10T10:09:19.066Z,98846.45
2023-03-10T10:10:17.066Z,98850.45
2023-03-10T10:11:15.059Z,98852.10
2023-03-10T10:12:16.059Z,98852.86
2023-03-10T10:13:16.062Z,98857.63
2023-03-10T10:14:28.537Z,98858.02
2023-03-10T10:15:18.060Z,98857.90
2023-03-10T10:16:33.511Z,98864.34
2023-03-10T10:17:21.120Z,98869.18
2023-03-10T10:18:19.110Z,98873.82
2023-03-10T10:19:21.030Z,98878.65
2023-03-10T10:20:20.054Z,98877.55
2023-03-10T10:21:22.395Z,98883.32
2023-03-10T10:22:19.061Z,98881.24
2023-03-10T10:23:21.076Z,98885.60
2023-03-10T10:24:11.065Z,98890.08
2023-03-10T10:25:16.057Z,98899.25
2023-03-10T10:26:16.064Z,98906.38
2023-03-10T10:27:11.081Z,98899.96
2023-03-10T10:28:19.056Z,98897.63
2023-03-10T10:29:21.060Z,98905.43
2023-03-10T10:30:19.059Z,98907.01
2023-03-10T10:31:17.159Z,98907.52
2023-03-10T10:32:14.120Z,98902.72
2023-03-10T10:33:11.088Z,98907.62
2023-03-10T10:34:21.083Z,98911.29
2023-03-10T10:35:15.065Z,98913.71
2023-03-10T10:36:16.085Z,98917.44
2023-03-10T10:37:19.057Z,98923.42
2023-03-10T10:38:21.075Z,98922.55
2023-03-10T10:39:19.064Z,98923.72
2023-03-10T10:40:19.082Z,98926.10
2023-03-10T10:41:18.079Z,98935.38
2023-03-10T10:42:19.103Z,98932.10
2023-03-10T10:43:16.064Z,98937.63
2023-03-10T10:44:15.078Z,98937.82
2023-03-10T10:45:19.076Z,98937.04
2023-03-10T10:46:11.111Z,98933.77
2023-03-10T10:47:19.064Z,98931.37
2023-03-10T10:48:19.059Z,98934.96
2023-03-10T10:49:19.087Z,98936.96
2023-03-10T10:50:21.066Z,98932.34
2023-03-10T10:51:19.093Z,98934.26
2023-03-10T10:52:19.074Z,98943.17
2023-03-10T10:53:19.064Z,98948.73
2023-03-10T10:54:19.063Z,98953.39
2023-03-10T10:55:19.073Z,98956.29
2023-03-10T10:56:15.076Z,98956.50
2023-03-10T10:57:17.064Z,98951.04
2023-03-10T10:58:22.063Z,98955.53
2023-03-10T10:59:19.072Z,98958.43
2023-03-10T11:00:21.131Z,98953.19
2023-03-10T11:01:11.116Z,98953.16
2023-03-10T11:02:19.142Z,98949.70
2023-03-10T11:03:19.072Z,98943.26
2023-03-10T11:04:13.076Z,98942.59
2023-03-10T11:05:18.098Z,98934.50
2023-03-10T11:06:19.063Z,98939.68
2023-03-10T11:07:19.082Z,98930.40
2023-03-10T11:08:19.075Z,98936.22
2023-03-10T11:09:18.075Z,98938.02
2023-03-10T11:10:21.068Z,98940.28
2023-03-10T11:11:19.073Z,98945.13
2023-03-10T11:12:19.082Z,98946.48
2023-03-10T11:13:19.073Z,98949.44
2023-03-10T11:14:19.067Z,98951.23
2023-03-10T11:15:19.064Z,98951.36
2023-03-10T11:16:19.094Z,98946.30
2023-03-10T11:17:19.065Z,98953.57
2023-03-10T11:18:21.082Z,98945.07
2023-03-10T11:19:19.063Z,98946.56
2023-03-10T11:20:19.080Z,98945.81
2023-03-10T11:21:18.075Z,98947.31
2023-03-10T11:22:21.065Z,98945.91
2023-03-10T11:23:21.060Z,98949.39
2023-03-10T11:24:19.077Z,98945.48
2023-03-10T11:25:19.076Z,98949.31
2023-03-10T11:26:21.085Z,98952.71
2023-03-10T11:27:19.070Z,98953.39
2023-03-10T11:28:19.099Z,98960.09
2023-03-10T11:29:19.123Z,98960.41
2023-03-10T11:30:18.089Z,98964.67
2023-03-10T11:31:19.126Z,98982.55
2023-03-10T11:32:21.085Z,98985.32
2023-03-10T11:33:21.104Z,98983.38
2023-03-10T11:34:18.066Z,98987.71
2023-03-10T11:35:19.076Z,98995.86
2023-03-10T11:36:19.168Z,99002.23
2023-03-10T11:37:21.064Z,99001.74
2023-03-10T11:38:22.063Z,99002.95
2023-03-10T11:39:19.097Z,99007.04
2023-03-10T11:40:19.093Z,99011.27
2023-03-10T11:41:14.076Z,99020.74
2023-03-10T11:42:19.068Z,99024.80
2023-03-10T11:43:19.069Z,99021.58
2023-03-10T11:44:19.096Z,99026.18